sensor_id;sensor_type;location;lat;lon;timestamp;temperature;humidity
15646;DHT22;7922;43.622;1.476;2022-08-21T00:01:20;23.00;99.90
15646;DHT22;7922;43.622;1.476;2022-08-21T00:03:47;22.90;99.90
15646;DHT22;7922;43.622;1.476;2022-08-21T00:06:13;22.90;99.90
15646;DHT22;7922;43.622;1.476;2022-08-21T00:08:39;22.90;99.90
15646;DHT22;7922;43.622;1.476;2022-08-21T00:11:05;22.90;99.90
15646;DHT22;7922;43.622;1.476;2022-08-21T00:13:31;22.90;99.90
15646;DHT22;7922;43.622;1.476;2022-08-21T00:15:58;22.90;99.90
15646;DHT22;7922;43.622;1.476;2022-08-21T00:18:24;22.80;99.90
15646;DHT22;7922;43.622;1.476;2022-08-21T00:20:50;22.80;99.90
15646;DHT22;7922;43.622;1.476;2022-08-21T00:23:17;22.80;99.90
15646;DHT22;7922;43.622;1.476;2022-08-21T00:25:44;22.80;99.90
15646;DHT22;7922;43.622;1.476;2022-08-21T00:28:11;22.80;99.90
15646;DHT22;7922;43.622;1.476;2022-08-21T00:30:38;22.80;99.90
15646;DHT22;7922;43.622;1.476;2022-08-21T00:33:04;22.80;99.90
15646;DHT22;7922;43.622;1.476;2022-08-21T00:35:35;22.80;99.90
15646;DHT22;7922;43.622;1.476;2022-08-21T00:38:01;22.80;99.90
15646;DHT22;7922;43.622;1.476;2022-08-21T00:40:35;22.80;99.90
15646;DHT22;7922;43.622;1.476;2022-08-21T00:43:08;22.70;99.90
15646;DHT22;7922;43.622;1.476;2022-08-21T00:45:34;22.70;99.90
15646;DHT22;7922;43.622;1.476;2022-08-21T00:48:00;22.70;99.90
15646;DHT22;7922;43.622;1.476;2022-08-21T00:50:30;22.60;99.90
15646;DHT22;7922;43.622;1.476;2022-08-21T00:52:58;22.60;99.90
15646;DHT22;7922;43.622;1.476;2022-08-21T00:55:26;22.60;99.90
15646;DHT22;7922;43.622;1.476;2022-08-21T00:57:54;22.60;99.90
15646;DHT22;7922;43.622;1.476;2022-08-21T01:00:26;22.50;99.90
15646;DHT22;7922;43.622;1.476;2022-08-21T01:02:54;22.50;99.90
15646;DHT22;7922;43.622;1.476;2022-08-21T01:05:20;22.40;99.90
15646;DHT22;7922;43.622;1.476;2022-08-21T01:07:46;22.40;99.90
15646;DHT22;7922;43.622;1.476;2022-08-21T01:10:12;22.30;99.90
15646;DHT22;7922;43.622;1.476;2022-08-21T01:12:39;22.30;99.90
15646;DHT22;7922;43.622;1.476;2022-08-21T01:15:06;22.20;99.90
15646;DHT22;7922;43.622;1.476;2022-08-21T01:17:33;22.20;99.90
15646;DHT22;7922;43.622;1.476;2022-08-21T01:20:00;22.20;99.90
15646;DHT22;7922;43.622;1.476;2022-08-21T01:22:27;22.10;99.90
15646;DHT22;7922;43.622;1.476;2022-08-21T01:24:53;22.10;99.90
15646;DHT22;7922;43.622;1.476;2022-08-21T01:27:18;22.10;99.90
15646;DHT22;7922;43.622;1.476;2022-08-21T01:32:45;22.10;99.90
15646;DHT22;7922;43.622;1.476;2022-08-21T01:35:13;22.20;99.90
15646;DHT22;7922;43.622;1.476;2022-08-21T01:37:39;22.20;99.90
15646;DHT22;7922;43.622;1.476;2022-08-21T01:40:06;22.20;99.90
15646;DHT22;7922;43.622;1.476;2022-08-21T01:42:32;22.20;99.90
15646;DHT22;7922;43.622;1.476;2022-08-21T01:44:58;22.20;99.90
15646;DHT22;7922;43.622;1.476;2022-08-21T01:47:25;22.20;99.90
15646;DHT22;7922;43.622;1.476;2022-08-21T01:49:50;22.20;99.90
15646;DHT22;7922;43.622;1.476;2022-08-21T01:52:16;22.10;99.90
15646;DHT22;7922;43.622;1.476;2022-08-21T01:54:42;22.10;99.90
15646;DHT22;7922;43.622;1.476;2022-08-21T01:57:09;22.10;99.90
15646;DHT22;7922;43.622;1.476;2022-08-21T01:59:35;22.10;99.90
15646;DHT22;7922;43.622;1.476;2022-08-21T02:02:02;22.10;99.90
15646;DHT22;7922;43.622;1.476;2022-08-21T02:04:28;22.10;99.90
15646;DHT22;7922;43.622;1.476;2022-08-21T02:06:55;22.00;99.90
15646;DHT22;7922;43.622;1.476;2022-08-21T02:09:21;22.00;99.90
15646;DHT22;7922;43.622;1.476;2022-08-21T02:11:47;21.90;99.90
15646;DHT22;7922;43.622;1.476;2022-08-21T02:14:14;21.90;99.90
15646;DHT22;7922;43.622;1.476;2022-08-21T02:16:43;21.90;99.90
15646;DHT22;7922;43.622;1.476;2022-08-21T02:19:09;21.90;99.90
15646;DHT22;7922;43.622;1.476;2022-08-21T02:21:36;21.90;99.90
15646;DHT22;7922;43.622;1.476;2022-08-21T02:24:02;21.90;99.90
15646;DHT22;7922;43.622;1.476;2022-08-21T02:26:27;21.80;99.90
15646;DHT22;7922;43.622;1.476;2022-08-21T02:28:53;21.80;99.90
15646;DHT22;7922;43.622;1.476;2022-08-21T02:31:19;21.70;99.90
15646;DHT22;7922;43.622;1.476;2022-08-21T02:33:45;21.70;99.90
15646;DHT22;7922;43.622;1.476;2022-08-21T02:36:12;21.70;99.90
15646;DHT22;7922;43.622;1.476;2022-08-21T02:38:41;21.70;99.90
15646;DHT22;7922;43.622;1.476;2022-08-21T02:41:10;21.70;99.90
15646;DHT22;7922;43.622;1.476;2022-08-21T02:43:36;21.70;99.90
15646;DHT22;7922;43.622;1.476;2022-08-21T02:46:03;21.70;99.90
15646;DHT22;7922;43.622;1.476;2022-08-21T02:48:31;21.70;99.90
15646;DHT22;7922;43.622;1.476;2022-08-21T02:51:00;21.70;99.90
15646;DHT22;7922;43.622;1.476;2022-08-21T02:53:27;21.70;99.90
15646;DHT22;7922;43.622;1.476;2022-08-21T02:55:53;21.70;99.90
15646;DHT22;7922;43.622;1.476;2022-08-21T02:58:27;21.70;99.90
15646;DHT22;7922;43.622;1.476;2022-08-21T03:00:54;21.70;99.90
15646;DHT22;7922;43.622;1.476;2022-08-21T03:03:20;21.70;99.90
15646;DHT22;7922;43.622;1.476;2022-08-21T03:05:46;21.60;99.90
15646;DHT22;7922;43.622;1.476;2022-08-21T03:08:13;21.60;99.90
15646;DHT22;7922;43.622;1.476;2022-08-21T03:10:41;21.60;99.90
15646;DHT22;7922;43.622;1.476;2022-08-21T03:13:08;21.60;99.90
15646;DHT22;7922;43.622;1.476;2022-08-21T03:15:34;21.60;99.90
15646;DHT22;7922;43.622;1.476;2022-08-21T03:18:01;21.60;99.90
15646;DHT22;7922;43.622;1.476;2022-08-21T03:20:28;21.60;99.90
15646;DHT22;7922;43.622;1.476;2022-08-21T03:22:54;21.60;99.90
15646;DHT22;7922;43.622;1.476;2022-08-21T03:25:25;21.60;99.90
15646;DHT22;7922;43.622;1.476;2022-08-21T03:27:51;21.60;99.90
15646;DHT22;7922;43.622;1.476;2022-08-21T03:30:19;21.60;99.90
15646;DHT22;7922;43.622;1.476;2022-08-21T03:32:49;21.60;99.90
15646;DHT22;7922;43.622;1.476;2022-08-21T03:35:16;21.60;99.90
15646;DHT22;7922;43.622;1.476;2022-08-21T03:37:42;21.60;99.90
15646;DHT22;7922;43.622;1.476;2022-08-21T03:40:10;21.60;99.90
15646;DHT22;7922;43.622;1.476;2022-08-21T03:42:36;21.60;99.90
15646;DHT22;7922;43.622;1.476;2022-08-21T03:45:03;21.60;99.90
15646;DHT22;7922;43.622;1.476;2022-08-21T03:47:29;21.60;99.90
15646;DHT22;7922;43.622;1.476;2022-08-21T03:49:55;21.60;99.90
15646;DHT22;7922;43.622;1.476;2022-08-21T03:52:21;21.60;99.90
15646;DHT22;7922;43.622;1.476;2022-08-21T03:54:47;21.60;99.90
15646;DHT22;7922;43.622;1.476;2022-08-21T03:57:12;21.60;99.90
15646;DHT22;7922;43.622;1.476;2022-08-21T03:59:38;21.60;99.90
15646;DHT22;7922;43.622;1.476;2022-08-21T04:02:08;21.60;99.90
15646;DHT22;7922;43.622;1.476;2022-08-21T04:04:34;21.60;99.90
15646;DHT22;7922;43.622;1.476;2022-08-21T04:07:00;21.60;99.90
15646;DHT22;7922;43.622;1.476;2022-08-21T04:09:27;21.60;99.90
15646;DHT22;7922;43.622;1.476;2022-08-21T04:11:53;21.60;99.90
15646;DHT22;7922;43.622;1.476;2022-08-21T04:14:19;21.60;99.90
15646;DHT22;7922;43.622;1.476;2022-08-21T04:16:45;21.60;99.90
15646;DHT22;7922;43.622;1.476;2022-08-21T04:19:12;21.60;99.90
15646;DHT22;7922;43.622;1.476;2022-08-21T04:21:39;21.50;99.90
15646;DHT22;7922;43.622;1.476;2022-08-21T04:24:06;21.50;99.90
15646;DHT22;7922;43.622;1.476;2022-08-21T04:26:33;21.50;99.90
15646;DHT22;7922;43.622;1.476;2022-08-21T04:29:00;21.50;99.90
15646;DHT22;7922;43.622;1.476;2022-08-21T04:31:26;21.50;99.90
15646;DHT22;7922;43.622;1.476;2022-08-21T04:33:54;21.50;99.90
15646;DHT22;7922;43.622;1.476;2022-08-21T04:36:20;21.50;99.90
15646;DHT22;7922;43.622;1.476;2022-08-21T04:38:46;21.50;99.90
15646;DHT22;7922;43.622;1.476;2022-08-21T04:41:12;21.50;99.90
15646;DHT22;7922;43.622;1.476;2022-08-21T04:43:38;21.50;99.90
15646;DHT22;7922;43.622;1.476;2022-08-21T04:46:04;21.50;99.90
15646;DHT22;7922;43.622;1.476;2022-08-21T04:48:31;21.50;99.90
15646;DHT22;7922;43.622;1.476;2022-08-21T04:51:15;21.50;99.90
15646;DHT22;7922;43.622;1.476;2022-08-21T04:56:35;21.50;99.90
15646;DHT22;7922;43.622;1.476;2022-08-21T04:59:06;21.50;99.90
15646;DHT22;7922;43.622;1.476;2022-08-21T05:01:37;21.50;99.90
15646;DHT22;7922;43.622;1.476;2022-08-21T05:04:04;21.50;99.90
15646;DHT22;7922;43.622;1.476;2022-08-21T05:06:33;21.40;99.90
15646;DHT22;7922;43.622;1.476;2022-08-21T05:09:00;21.40;99.90
15646;DHT22;7922;43.622;1.476;2022-08-21T05:11:27;21.40;99.90
15646;DHT22;7922;43.622;1.476;2022-08-21T05:13:53;21.40;99.90
15646;DHT22;7922;43.622;1.476;2022-08-21T05:16:19;21.40;99.90
15646;DHT22;7922;43.622;1.476;2022-08-21T05:18:45;21.40;99.90
15646;DHT22;7922;43.622;1.476;2022-08-21T05:21:11;21.40;99.90
15646;DHT22;7922;43.622;1.476;2022-08-21T05:23:37;21.30;99.90
15646;DHT22;7922;43.622;1.476;2022-08-21T05:26:03;21.30;99.90
15646;DHT22;7922;43.622;1.476;2022-08-21T05:28:30;21.30;99.90
15646;DHT22;7922;43.622;1.476;2022-08-21T05:30:55;21.30;99.90
15646;DHT22;7922;43.622;1.476;2022-08-21T05:33:21;21.30;99.90
15646;DHT22;7922;43.622;1.476;2022-08-21T05:35:50;21.40;99.90
15646;DHT22;7922;43.622;1.476;2022-08-21T05:38:17;21.40;99.90
15646;DHT22;7922;43.622;1.476;2022-08-21T05:40:43;21.40;99.90
15646;DHT22;7922;43.622;1.476;2022-08-21T05:43:09;21.40;99.90
15646;DHT22;7922;43.622;1.476;2022-08-21T05:45:35;21.40;99.90
15646;DHT22;7922;43.622;1.476;2022-08-21T05:48:10;21.40;99.90
15646;DHT22;7922;43.622;1.476;2022-08-21T05:50:36;21.40;99.90
15646;DHT22;7922;43.622;1.476;2022-08-21T05:53:04;21.50;99.90
15646;DHT22;7922;43.622;1.476;2022-08-21T05:55:29;21.50;99.90
15646;DHT22;7922;43.622;1.476;2022-08-21T05:57:55;21.60;99.90
15646;DHT22;7922;43.622;1.476;2022-08-21T06:00:21;21.80;99.90
15646;DHT22;7922;43.622;1.476;2022-08-21T06:02:49;21.90;99.90
15646;DHT22;7922;43.622;1.476;2022-08-21T06:05:16;22.00;99.90
15646;DHT22;7922;43.622;1.476;2022-08-21T06:07:42;22.10;99.90
15646;DHT22;7922;43.622;1.476;2022-08-21T06:10:07;22.10;99.90
15646;DHT22;7922;43.622;1.476;2022-08-21T06:12:33;22.20;99.90
15646;DHT22;7922;43.622;1.476;2022-08-21T06:14:59;22.30;99.90
15646;DHT22;7922;43.622;1.476;2022-08-21T06:17:24;22.30;99.90
15646;DHT22;7922;43.622;1.476;2022-08-21T06:19:52;22.40;99.90
15646;DHT22;7922;43.622;1.476;2022-08-21T06:22:18;22.40;99.90
15646;DHT22;7922;43.622;1.476;2022-08-21T06:24:44;22.30;99.90
15646;DHT22;7922;43.622;1.476;2022-08-21T06:27:10;22.20;99.90
15646;DHT22;7922;43.622;1.476;2022-08-21T06:29:36;22.20;99.90
15646;DHT22;7922;43.622;1.476;2022-08-21T06:32:03;22.30;99.90
15646;DHT22;7922;43.622;1.476;2022-08-21T06:34:29;22.40;99.90
15646;DHT22;7922;43.622;1.476;2022-08-21T06:36:54;22.60;99.90
15646;DHT22;7922;43.622;1.476;2022-08-21T06:39:20;22.70;99.90
15646;DHT22;7922;43.622;1.476;2022-08-21T06:41:46;22.70;99.90
15646;DHT22;7922;43.622;1.476;2022-08-21T06:44:11;22.80;99.90
15646;DHT22;7922;43.622;1.476;2022-08-21T06:46:37;22.80;99.90
15646;DHT22;7922;43.622;1.476;2022-08-21T06:49:03;22.80;99.90
15646;DHT22;7922;43.622;1.476;2022-08-21T06:51:29;22.90;99.90
15646;DHT22;7922;43.622;1.476;2022-08-21T06:53:55;22.90;99.90
15646;DHT22;7922;43.622;1.476;2022-08-21T06:56:21;23.00;99.90
15646;DHT22;7922;43.622;1.476;2022-08-21T06:58:47;23.00;99.90
15646;DHT22;7922;43.622;1.476;2022-08-21T07:01:12;23.10;99.90
15646;DHT22;7922;43.622;1.476;2022-08-21T07:03:41;23.30;99.90
15646;DHT22;7922;43.622;1.476;2022-08-21T07:06:09;23.50;99.90
15646;DHT22;7922;43.622;1.476;2022-08-21T07:08:36;23.50;99.90
15646;DHT22;7922;43.622;1.476;2022-08-21T07:11:06;23.50;99.90
15646;DHT22;7922;43.622;1.476;2022-08-21T07:13:32;23.50;99.90
15646;DHT22;7922;43.622;1.476;2022-08-21T07:15:58;23.40;99.90
15646;DHT22;7922;43.622;1.476;2022-08-21T07:18:24;23.50;99.90
15646;DHT22;7922;43.622;1.476;2022-08-21T07:20:50;23.70;99.90
15646;DHT22;7922;43.622;1.476;2022-08-21T07:23:28;23.80;99.90
15646;DHT22;7922;43.622;1.476;2022-08-21T07:25:54;23.70;99.90
15646;DHT22;7922;43.622;1.476;2022-08-21T07:28:20;23.80;99.90
15646;DHT22;7922;43.622;1.476;2022-08-21T07:30:46;23.80;99.90
15646;DHT22;7922;43.622;1.476;2022-08-21T07:33:16;24.00;99.90
15646;DHT22;7922;43.622;1.476;2022-08-21T07:35:41;24.00;99.90
15646;DHT22;7922;43.622;1.476;2022-08-21T07:38:07;24.10;99.90
15646;DHT22;7922;43.622;1.476;2022-08-21T07:40:33;23.90;99.90
15646;DHT22;7922;43.622;1.476;2022-08-21T07:42:59;23.80;99.90
15646;DHT22;7922;43.622;1.476;2022-08-21T07:45:24;23.80;99.90
15646;DHT22;7922;43.622;1.476;2022-08-21T07:47:51;24.00;99.90
15646;DHT22;7922;43.622;1.476;2022-08-21T07:50:18;24.10;99.90
15646;DHT22;7922;43.622;1.476;2022-08-21T07:52:44;24.40;99.90
15646;DHT22;7922;43.622;1.476;2022-08-21T07:55:12;24.40;99.90
15646;DHT22;7922;43.622;1.476;2022-08-21T07:57:38;24.50;99.90
15646;DHT22;7922;43.622;1.476;2022-08-21T08:00:11;24.60;99.90
15646;DHT22;7922;43.622;1.476;2022-08-21T08:02:48;24.60;99.90
15646;DHT22;7922;43.622;1.476;2022-08-21T08:05:43;24.40;99.90
15646;DHT22;7922;43.622;1.476;2022-08-21T08:08:26;24.50;99.90
15646;DHT22;7922;43.622;1.476;2022-08-21T08:10:53;24.50;99.90
15646;DHT22;7922;43.622;1.476;2022-08-21T08:13:21;24.70;99.90
15646;DHT22;7922;43.622;1.476;2022-08-21T08:15:50;24.90;99.90
15646;DHT22;7922;43.622;1.476;2022-08-21T08:18:16;25.20;99.90
15646;DHT22;7922;43.622;1.476;2022-08-21T08:20:42;25.30;99.90
15646;DHT22;7922;43.622;1.476;2022-08-21T08:23:12;25.30;99.90
15646;DHT22;7922;43.622;1.476;2022-08-21T08:25:38;24.90;99.90
15646;DHT22;7922;43.622;1.476;2022-08-21T08:28:05;24.90;99.90
15646;DHT22;7922;43.622;1.476;2022-08-21T08:30:32;25.10;99.90
15646;DHT22;7922;43.622;1.476;2022-08-21T08:32:58;25.10;99.90
15646;DHT22;7922;43.622;1.476;2022-08-21T08:35:25;25.10;99.90
15646;DHT22;7922;43.622;1.476;2022-08-21T08:37:51;25.30;99.90
15646;DHT22;7922;43.622;1.476;2022-08-21T08:40:31;25.40;99.90
15646;DHT22;7922;43.622;1.476;2022-08-21T08:42:59;25.30;99.90
15646;DHT22;7922;43.622;1.476;2022-08-21T08:45:25;25.30;99.90
15646;DHT22;7922;43.622;1.476;2022-08-21T08:48:02;25.50;99.90
15646;DHT22;7922;43.622;1.476;2022-08-21T08:50:52;25.50;99.90
15646;DHT22;7922;43.622;1.476;2022-08-21T08:53:32;25.50;99.90
15646;DHT22;7922;43.622;1.476;2022-08-21T08:56:00;25.90;99.90
15646;DHT22;7922;43.622;1.476;2022-08-21T08:58:34;26.00;99.90
15646;DHT22;7922;43.622;1.476;2022-08-21T09:01:05;26.10;99.90
15646;DHT22;7922;43.622;1.476;2022-08-21T09:03:31;26.30;99.90
15646;DHT22;7922;43.622;1.476;2022-08-21T09:06:04;26.60;99.90
15646;DHT22;7922;43.622;1.476;2022-08-21T09:25:46;25.80;99.90
15646;DHT22;7922;43.622;1.476;2022-08-21T09:28:16;25.90;99.90
15646;DHT22;7922;43.622;1.476;2022-08-21T09:30:42;26.20;99.90
15646;DHT22;7922;43.622;1.476;2022-08-21T09:33:10;26.30;99.90
15646;DHT22;7922;43.622;1.476;2022-08-21T09:35:51;26.40;99.90
15646;DHT22;7922;43.622;1.476;2022-08-21T09:38:27;26.60;99.90
15646;DHT22;7922;43.622;1.476;2022-08-21T09:41:02;26.70;99.90
15646;DHT22;7922;43.622;1.476;2022-08-21T09:43:30;26.60;99.90
15646;DHT22;7922;43.622;1.476;2022-08-21T09:48:28;26.70;99.90
15646;DHT22;7922;43.622;1.476;2022-08-21T09:51:09;27.10;99.90
15646;DHT22;7922;43.622;1.476;2022-08-21T09:53:41;27.40;99.90
15646;DHT22;7922;43.622;1.476;2022-08-21T09:56:51;27.40;99.90
15646;DHT22;7922;43.622;1.476;2022-08-21T09:59:29;27.80;99.90
15646;DHT22;7922;43.622;1.476;2022-08-21T10:01:59;28.40;99.90
15646;DHT22;7922;43.622;1.476;2022-08-21T10:04:33;28.30;99.90
15646;DHT22;7922;43.622;1.476;2022-08-21T10:07:14;28.00;99.90
15646;DHT22;7922;43.622;1.476;2022-08-21T10:09:41;28.10;99.90
15646;DHT22;7922;43.622;1.476;2022-08-21T10:12:13;27.90;99.90
15646;DHT22;7922;43.622;1.476;2022-08-21T10:14:55;28.10;99.90
15646;DHT22;7922;43.622;1.476;2022-08-21T10:20:22;28.10;99.90
15646;DHT22;7922;43.622;1.476;2022-08-21T10:23:20;28.10;99.90
15646;DHT22;7922;43.622;1.476;2022-08-21T10:26:05;28.20;99.90
15646;DHT22;7922;43.622;1.476;2022-08-21T10:47:52;28.30;99.90
15646;DHT22;7922;43.622;1.476;2022-08-21T10:50:42;27.60;99.90
15646;DHT22;7922;43.622;1.476;2022-08-21T10:53:59;27.80;99.90
15646;DHT22;7922;43.622;1.476;2022-08-21T10:56:26;28.10;99.90
15646;DHT22;7922;43.622;1.476;2022-08-21T10:59:11;28.10;99.90
15646;DHT22;7922;43.622;1.476;2022-08-21T11:05:12;28.20;99.90
15646;DHT22;7922;43.622;1.476;2022-08-21T11:07:54;28.00;99.90
15646;DHT22;7922;43.622;1.476;2022-08-21T11:10:25;28.40;99.90
15646;DHT22;7922;43.622;1.476;2022-08-21T11:12:58;28.50;99.90
15646;DHT22;7922;43.622;1.476;2022-08-21T11:15:50;28.80;99.90
15646;DHT22;7922;43.622;1.476;2022-08-21T11:23:45;28.60;99.90
15646;DHT22;7922;43.622;1.476;2022-08-21T11:42:35;28.60;99.90
15646;DHT22;7922;43.622;1.476;2022-08-21T11:48:02;28.80;99.90
15646;DHT22;7922;43.622;1.476;2022-08-21T11:50:32;28.70;99.90
15646;DHT22;7922;43.622;1.476;2022-08-21T11:53:04;28.70;99.90
15646;DHT22;7922;43.622;1.476;2022-08-21T12:00:56;29.50;99.90
15646;DHT22;7922;43.622;1.476;2022-08-21T12:03:28;29.90;99.90
15646;DHT22;7922;43.622;1.476;2022-08-21T12:06:14;29.90;99.90
15646;DHT22;7922;43.622;1.476;2022-08-21T12:08:43;29.70;99.90
15646;DHT22;7922;43.622;1.476;2022-08-21T12:16:34;29.70;99.90
15646;DHT22;7922;43.622;1.476;2022-08-21T12:19:06;29.50;99.90
15646;DHT22;7922;43.622;1.476;2022-08-21T12:21:33;29.40;99.90
15646;DHT22;7922;43.622;1.476;2022-08-21T12:26:47;29.70;99.90
15646;DHT22;7922;43.622;1.476;2022-08-21T12:29:21;29.60;99.90
15646;DHT22;7922;43.622;1.476;2022-08-21T12:34:24;29.40;99.90
15646;DHT22;7922;43.622;1.476;2022-08-21T12:37:02;29.70;99.90
15646;DHT22;7922;43.622;1.476;2022-08-21T12:39:31;30.00;99.90
15646;DHT22;7922;43.622;1.476;2022-08-21T12:42:17;29.70;99.90
15646;DHT22;7922;43.622;1.476;2022-08-21T12:44:48;29.80;99.90
15646;DHT22;7922;43.622;1.476;2022-08-21T12:47:43;29.70;99.90
15646;DHT22;7922;43.622;1.476;2022-08-21T12:50:15;29.70;99.90
15646;DHT22;7922;43.622;1.476;2022-08-21T12:52:57;29.70;99.90
15646;DHT22;7922;43.622;1.476;2022-08-21T12:55:30;29.40;99.90
15646;DHT22;7922;43.622;1.476;2022-08-21T12:57:56;29.30;99.90
15646;DHT22;7922;43.622;1.476;2022-08-21T13:00:28;29.30;99.90
15646;DHT22;7922;43.622;1.476;2022-08-21T13:02:55;29.50;99.90
15646;DHT22;7922;43.622;1.476;2022-08-21T13:07:50;29.30;99.90
15646;DHT22;7922;43.622;1.476;2022-08-21T13:10:27;29.30;99.90
15646;DHT22;7922;43.622;1.476;2022-08-21T13:12:59;29.20;99.90
15646;DHT22;7922;43.622;1.476;2022-08-21T13:15:29;29.20;99.90
15646;DHT22;7922;43.622;1.476;2022-08-21T13:17:55;29.30;99.90
15646;DHT22;7922;43.622;1.476;2022-08-21T13:20:33;29.40;99.90
15646;DHT22;7922;43.622;1.476;2022-08-21T13:23:01;29.50;99.90
15646;DHT22;7922;43.622;1.476;2022-08-21T13:25:30;29.40;99.90
15646;DHT22;7922;43.622;1.476;2022-08-21T13:28:08;29.50;99.90
15646;DHT22;7922;43.622;1.476;2022-08-21T13:30:39;29.40;99.90
15646;DHT22;7922;43.622;1.476;2022-08-21T13:33:05;29.30;99.90
15646;DHT22;7922;43.622;1.476;2022-08-21T13:38:27;29.30;99.90
15646;DHT22;7922;43.622;1.476;2022-08-21T13:40:57;29.30;99.90
15646;DHT22;7922;43.622;1.476;2022-08-21T13:43:30;29.10;99.90
15646;DHT22;7922;43.622;1.476;2022-08-21T13:45:57;29.20;99.90
15646;DHT22;7922;43.622;1.476;2022-08-21T13:48:28;29.20;99.90
15646;DHT22;7922;43.622;1.476;2022-08-21T13:50:55;29.20;99.90
15646;DHT22;7922;43.622;1.476;2022-08-21T13:53:36;29.10;99.90
15646;DHT22;7922;43.622;1.476;2022-08-21T13:56:03;29.20;99.90
15646;DHT22;7922;43.622;1.476;2022-08-21T13:58:42;29.10;99.90
15646;DHT22;7922;43.622;1.476;2022-08-21T14:03:48;29.10;99.90
15646;DHT22;7922;43.622;1.476;2022-08-21T14:06:18;29.10;99.90
15646;DHT22;7922;43.622;1.476;2022-08-21T14:09:11;29.30;99.90
15646;DHT22;7922;43.622;1.476;2022-08-21T14:11:37;29.30;99.90
15646;DHT22;7922;43.622;1.476;2022-08-21T14:14:30;29.30;99.90
15646;DHT22;7922;43.622;1.476;2022-08-21T14:17:03;28.90;99.90
15646;DHT22;7922;43.622;1.476;2022-08-21T14:27:29;29.50;99.90
15646;DHT22;7922;43.622;1.476;2022-08-21T14:30:10;29.40;99.90
15646;DHT22;7922;43.622;1.476;2022-08-21T14:32:39;29.20;99.90
15646;DHT22;7922;43.622;1.476;2022-08-21T14:35:05;29.00;99.90
15646;DHT22;7922;43.622;1.476;2022-08-21T14:37:31;29.00;99.90
15646;DHT22;7922;43.622;1.476;2022-08-21T14:39:57;29.10;99.90
15646;DHT22;7922;43.622;1.476;2022-08-21T14:42:24;29.00;99.90
15646;DHT22;7922;43.622;1.476;2022-08-21T14:44:51;29.10;99.90
15646;DHT22;7922;43.622;1.476;2022-08-21T14:47:16;28.90;99.90
15646;DHT22;7922;43.622;1.476;2022-08-21T14:49:42;28.80;99.90
15646;DHT22;7922;43.622;1.476;2022-08-21T14:52:08;28.70;99.90
15646;DHT22;7922;43.622;1.476;2022-08-21T14:54:34;28.60;99.90
15646;DHT22;7922;43.622;1.476;2022-08-21T14:57:09;28.60;99.90
15646;DHT22;7922;43.622;1.476;2022-08-21T14:59:36;28.70;99.90
15646;DHT22;7922;43.622;1.476;2022-08-21T15:02:03;28.80;99.90
15646;DHT22;7922;43.622;1.476;2022-08-21T15:04:30;28.90;99.90
15646;DHT22;7922;43.622;1.476;2022-08-21T15:06:56;28.80;99.90
15646;DHT22;7922;43.622;1.476;2022-08-21T15:09:22;28.90;99.90
15646;DHT22;7922;43.622;1.476;2022-08-21T15:11:49;28.90;99.90
15646;DHT22;7922;43.622;1.476;2022-08-21T15:14:22;28.80;99.90
15646;DHT22;7922;43.622;1.476;2022-08-21T15:16:49;28.80;99.90
15646;DHT22;7922;43.622;1.476;2022-08-21T15:19:15;28.70;99.90
15646;DHT22;7922;43.622;1.476;2022-08-21T15:21:41;28.60;99.90
15646;DHT22;7922;43.622;1.476;2022-08-21T15:24:07;28.60;99.90
15646;DHT22;7922;43.622;1.476;2022-08-21T15:26:33;28.70;99.90
15646;DHT22;7922;43.622;1.476;2022-08-21T15:29:00;28.60;99.90
15646;DHT22;7922;43.622;1.476;2022-08-21T15:31:26;28.50;99.90
15646;DHT22;7922;43.622;1.476;2022-08-21T15:33:53;28.50;99.90
15646;DHT22;7922;43.622;1.476;2022-08-21T15:36:19;28.60;99.90
15646;DHT22;7922;43.622;1.476;2022-08-21T15:38:45;28.80;99.90
15646;DHT22;7922;43.622;1.476;2022-08-21T15:41:11;28.80;99.90
15646;DHT22;7922;43.622;1.476;2022-08-21T15:43:46;28.80;99.90
15646;DHT22;7922;43.622;1.476;2022-08-21T15:46:14;28.70;99.90
15646;DHT22;7922;43.622;1.476;2022-08-21T15:48:41;28.80;99.90
15646;DHT22;7922;43.622;1.476;2022-08-21T15:51:08;28.80;99.90
15646;DHT22;7922;43.622;1.476;2022-08-21T15:53:34;29.00;99.90
15646;DHT22;7922;43.622;1.476;2022-08-21T15:56:05;28.90;99.90
15646;DHT22;7922;43.622;1.476;2022-08-21T15:58:31;28.60;99.90
15646;DHT22;7922;43.622;1.476;2022-08-21T16:01:01;28.60;99.90
15646;DHT22;7922;43.622;1.476;2022-08-21T16:03:27;28.60;99.90
15646;DHT22;7922;43.622;1.476;2022-08-21T16:05:53;28.70;99.90
15646;DHT22;7922;43.622;1.476;2022-08-21T16:08:22;28.70;99.90
15646;DHT22;7922;43.622;1.476;2022-08-21T16:10:48;28.70;99.90
15646;DHT22;7922;43.622;1.476;2022-08-21T16:13:22;28.80;99.90
15646;DHT22;7922;43.622;1.476;2022-08-21T16:15:49;28.70;99.90
15646;DHT22;7922;43.622;1.476;2022-08-21T16:18:17;28.60;99.90
15646;DHT22;7922;43.622;1.476;2022-08-21T16:20:43;28.60;99.90
15646;DHT22;7922;43.622;1.476;2022-08-21T16:23:09;28.40;99.90
15646;DHT22;7922;43.622;1.476;2022-08-21T16:25:37;28.30;99.90
15646;DHT22;7922;43.622;1.476;2022-08-21T16:28:07;28.30;99.90
15646;DHT22;7922;43.622;1.476;2022-08-21T16:30:34;28.40;99.90
15646;DHT22;7922;43.622;1.476;2022-08-21T16:33:01;28.50;99.90
15646;DHT22;7922;43.622;1.476;2022-08-21T16:35:28;28.30;99.90
15646;DHT22;7922;43.622;1.476;2022-08-21T16:37:54;28.20;99.90
15646;DHT22;7922;43.622;1.476;2022-08-21T16:40:20;28.20;99.90
15646;DHT22;7922;43.622;1.476;2022-08-21T16:42:51;28.10;99.90
15646;DHT22;7922;43.622;1.476;2022-08-21T16:45:19;28.00;99.90
15646;DHT22;7922;43.622;1.476;2022-08-21T16:47:46;28.00;99.90
15646;DHT22;7922;43.622;1.476;2022-08-21T16:50:18;28.00;99.90
15646;DHT22;7922;43.622;1.476;2022-08-21T16:52:45;28.00;99.90
15646;DHT22;7922;43.622;1.476;2022-08-21T16:55:10;28.00;99.90
15646;DHT22;7922;43.622;1.476;2022-08-21T16:57:36;27.90;99.90
15646;DHT22;7922;43.622;1.476;2022-08-21T17:00:05;27.90;99.90
15646;DHT22;7922;43.622;1.476;2022-08-21T17:02:37;27.90;99.90
15646;DHT22;7922;43.622;1.476;2022-08-21T17:05:04;27.90;99.90
15646;DHT22;7922;43.622;1.476;2022-08-21T17:07:31;27.90;99.90
15646;DHT22;7922;43.622;1.476;2022-08-21T17:09:58;28.10;99.90
15646;DHT22;7922;43.622;1.476;2022-08-21T17:12:24;28.20;99.90
15646;DHT22;7922;43.622;1.476;2022-08-21T17:14:50;28.20;99.90
15646;DHT22;7922;43.622;1.476;2022-08-21T17:17:16;28.10;99.90
15646;DHT22;7922;43.622;1.476;2022-08-21T17:19:42;28.00;99.90
15646;DHT22;7922;43.622;1.476;2022-08-21T17:22:08;27.90;99.90
15646;DHT22;7922;43.622;1.476;2022-08-21T17:24:35;27.80;99.90
15646;DHT22;7922;43.622;1.476;2022-08-21T17:27:02;27.80;99.90
15646;DHT22;7922;43.622;1.476;2022-08-21T17:29:33;27.70;99.90
15646;DHT22;7922;43.622;1.476;2022-08-21T17:32:00;27.60;99.90
15646;DHT22;7922;43.622;1.476;2022-08-21T17:34:27;27.60;99.90
15646;DHT22;7922;43.622;1.476;2022-08-21T17:36:53;27.50;99.90
15646;DHT22;7922;43.622;1.476;2022-08-21T17:39:19;27.60;99.90
15646;DHT22;7922;43.622;1.476;2022-08-21T17:41:44;27.60;99.90
15646;DHT22;7922;43.622;1.476;2022-08-21T17:44:11;27.70;99.90